Terminal Aerodrome Forecast
Issued by NWS

Home | Current Version | Previous Version | Text Only | Print | Product List | Glossary On
Versions: 1 2 3 4 5 6 7 8 9 10 11 12 13 14
000
FTUS43 KPAH 222320
TAFOWB
TAF
KOWB 222320Z 2300/2324 23009KT P6SM SCT250
     FM231000 24007KT P6SM VCTS SCT050CB BKN100
     FM231600 29006KT P6SM BKN050
     FM232000 30007KT P6SM SCT060=

USA.gov is the U.S. government's official web portal to all federal, state and local government web resources and services.